sensor_id;sensor_type;location;lat;lon;timestamp;pressure;altitude;pressure_sealevel;temperature;humidity
12949;BME280;6539;49.476;8.484;2023-07-09T00:01:36;100707.75;;;25.37;56.37
12949;BME280;6539;49.476;8.484;2023-07-09T00:04:23;100712.16;;;25.43;56.46
12949;BME280;6539;49.476;8.484;2023-07-09T00:07:32;100707.84;;;25.48;55.75
12949;BME280;6539;49.476;8.484;2023-07-09T00:10:20;100712.97;;;25.49;54.59
12949;BME280;6539;49.476;8.484;2023-07-09T00:13:07;100714.00;;;25.46;54.48
12949;BME280;6539;49.476;8.484;2023-07-09T00:15:59;100716.25;;;25.42;54.42
12949;BME280;6539;49.476;8.484;2023-07-09T00:18:46;100715.13;;;25.34;54.61
12949;BME280;6539;49.476;8.484;2023-07-09T00:21:36;100716.59;;;25.24;54.78
12949;BME280;6539;49.476;8.484;2023-07-09T00:24:23;100719.56;;;25.15;54.98
12949;BME280;6539;49.476;8.484;2023-07-09T00:27:11;100718.81;;;25.15;55.09
12949;BME280;6539;49.476;8.484;2023-07-09T00:29:58;100717.81;;;25.18;54.77
12949;BME280;6539;49.476;8.484;2023-07-09T00:32:44;100724.72;;;25.17;54.86
12949;BME280;6539;49.476;8.484;2023-07-09T00:35:33;100725.97;;;25.16;54.92
12949;BME280;6539;49.476;8.484;2023-07-09T00:38:21;100734.38;;;25.10;54.89
12949;BME280;6539;49.476;8.484;2023-07-09T00:41:18;100733.53;;;25.04;55.10
12949;BME280;6539;49.476;8.484;2023-07-09T00:53:29;100731.78;;;24.81;55.46
12949;BME280;6539;49.476;8.484;2023-07-09T00:56:38;100724.63;;;24.80;55.74
12949;BME280;6539;49.476;8.484;2023-07-09T00:59:28;100725.72;;;24.68;56.50
12949;BME280;6539;49.476;8.484;2023-07-09T01:02:20;100729.97;;;24.58;57.38
12949;BME280;6539;49.476;8.484;2023-07-09T01:05:10;100743.88;;;24.47;58.42
12949;BME280;6539;49.476;8.484;2023-07-09T01:07:59;100752.44;;;24.38;59.13
12949;BME280;6539;49.476;8.484;2023-07-09T01:10:46;100747.06;;;24.34;59.00
12949;BME280;6539;49.476;8.484;2023-07-09T01:13:32;100753.63;;;24.31;59.18
12949;BME280;6539;49.476;8.484;2023-07-09T01:16:19;100742.22;;;24.35;59.38
12949;BME280;6539;49.476;8.484;2023-07-09T01:19:09;100743.97;;;24.32;59.41
12949;BME280;6539;49.476;8.484;2023-07-09T01:21:57;100746.31;;;24.39;59.28
12949;BME280;6539;49.476;8.484;2023-07-09T01:25:03;100740.53;;;24.43;59.17
12949;BME280;6539;49.476;8.484;2023-07-09T01:27:50;100741.78;;;24.42;59.42
12949;BME280;6539;49.476;8.484;2023-07-09T01:30:40;100748.94;;;24.43;59.05
12949;BME280;6539;49.476;8.484;2023-07-09T01:33:27;100739.03;;;24.47;58.68
12949;BME280;6539;49.476;8.484;2023-07-09T01:36:17;100738.31;;;24.52;58.56
12949;BME280;6539;49.476;8.484;2023-07-09T01:39:06;100737.56;;;24.52;58.10
12949;BME280;6539;49.476;8.484;2023-07-09T01:41:52;100736.38;;;24.58;58.03
12949;BME280;6539;49.476;8.484;2023-07-09T01:44:38;100741.75;;;24.62;58.35
12949;BME280;6539;49.476;8.484;2023-07-09T01:47:24;100746.22;;;24.74;58.21
12949;BME280;6539;49.476;8.484;2023-07-09T01:50:11;100741.19;;;24.78;57.79
12949;BME280;6539;49.476;8.484;2023-07-09T01:53:04;100734.22;;;24.73;57.67
12949;BME280;6539;49.476;8.484;2023-07-09T01:55:54;100737.75;;;24.68;57.86
12949;BME280;6539;49.476;8.484;2023-07-09T01:58:40;100740.19;;;24.61;58.07
12949;BME280;6539;49.476;8.484;2023-07-09T02:01:30;100740.66;;;24.54;57.97
12949;BME280;6539;49.476;8.484;2023-07-09T02:04:19;100749.91;;;24.40;58.45
12949;BME280;6539;49.476;8.484;2023-07-09T02:07:05;100750.31;;;24.33;58.92
12949;BME280;6539;49.476;8.484;2023-07-09T02:09:52;100747.69;;;24.23;59.13
12949;BME280;6539;49.476;8.484;2023-07-09T02:12:38;100747.13;;;24.19;59.29
12949;BME280;6539;49.476;8.484;2023-07-09T02:15:24;100750.69;;;24.20;59.42
12949;BME280;6539;49.476;8.484;2023-07-09T02:18:11;100747.06;;;24.34;59.19
12949;BME280;6539;49.476;8.484;2023-07-09T02:20:59;100748.94;;;24.43;58.80
12949;BME280;6539;49.476;8.484;2023-07-09T02:23:46;100743.31;;;24.43;58.81
12949;BME280;6539;49.476;8.484;2023-07-09T02:26:38;100748.94;;;24.43;58.75
12949;BME280;6539;49.476;8.484;2023-07-09T02:29:25;100733.34;;;24.42;58.39
12949;BME280;6539;49.476;8.484;2023-07-09T02:32:24;100742.53;;;24.42;58.31
12949;BME280;6539;49.476;8.484;2023-07-09T02:35:13;100736.94;;;24.42;57.96
12949;BME280;6539;49.476;8.484;2023-07-09T02:38:02;100732.59;;;24.41;57.65
12949;BME280;6539;49.476;8.484;2023-07-09T02:40:51;100738.69;;;24.40;57.77
12949;BME280;6539;49.476;8.484;2023-07-09T02:43:41;100745.56;;;24.39;57.64
12949;BME280;6539;49.476;8.484;2023-07-09T02:46:27;100746.28;;;24.34;58.15
12949;BME280;6539;49.476;8.484;2023-07-09T02:49:14;100748.25;;;24.28;58.36
12949;BME280;6539;49.476;8.484;2023-07-09T02:52:01;100749.16;;;24.19;58.74
12949;BME280;6539;49.476;8.484;2023-07-09T02:54:47;100746.81;;;24.17;58.69
12949;BME280;6539;49.476;8.484;2023-07-09T02:57:33;100748.78;;;24.11;58.95
12949;BME280;6539;49.476;8.484;2023-07-09T03:00:19;100752.31;;;24.06;59.51
12949;BME280;6539;49.476;8.484;2023-07-09T03:03:05;100755.50;;;23.99;59.71
12949;BME280;6539;49.476;8.484;2023-07-09T03:05:53;100763.06;;;23.93;59.92
12949;BME280;6539;49.476;8.484;2023-07-09T03:08:39;100763.75;;;23.88;60.20
12949;BME280;6539;49.476;8.484;2023-07-09T03:11:28;100772.00;;;23.77;60.88
12949;BME280;6539;49.476;8.484;2023-07-09T03:14:17;100770.19;;;23.74;60.95
12949;BME280;6539;49.476;8.484;2023-07-09T03:17:03;100768.13;;;23.75;61.15
12949;BME280;6539;49.476;8.484;2023-07-09T03:19:52;100767.28;;;23.69;61.28
12949;BME280;6539;49.476;8.484;2023-07-09T03:22:38;100771.91;;;23.57;61.85
12949;BME280;6539;49.476;8.484;2023-07-09T03:25:24;100777.38;;;23.46;62.45
12949;BME280;6539;49.476;8.484;2023-07-09T03:28:11;100774.38;;;23.35;63.35
12949;BME280;6539;49.476;8.484;2023-07-09T03:31:00;100776.97;;;23.24;64.16
12949;BME280;6539;49.476;8.484;2023-07-09T03:33:47;100779.97;;;23.20;64.48
12949;BME280;6539;49.476;8.484;2023-07-09T03:36:34;100780.91;;;23.17;64.77
12949;BME280;6539;49.476;8.484;2023-07-09T03:39:20;100783.63;;;23.12;65.28
12949;BME280;6539;49.476;8.484;2023-07-09T03:42:09;100790.47;;;23.11;65.73
12949;BME280;6539;49.476;8.484;2023-07-09T03:44:57;100792.50;;;23.10;66.17
12949;BME280;6539;49.476;8.484;2023-07-09T03:47:43;100791.72;;;23.10;66.56
12949;BME280;6539;49.476;8.484;2023-07-09T03:50:30;100791.44;;;23.08;67.02
12949;BME280;6539;49.476;8.484;2023-07-09T03:53:18;100794.22;;;23.08;67.00
12949;BME280;6539;49.476;8.484;2023-07-09T03:56:07;100799.84;;;23.08;67.12
12949;BME280;6539;49.476;8.484;2023-07-09T03:59:00;100796.75;;;23.06;67.90
12949;BME280;6539;49.476;8.484;2023-07-09T04:01:46;100794.22;;;23.08;68.16
12949;BME280;6539;49.476;8.484;2023-07-09T04:04:35;100795.72;;;23.18;68.25
12949;BME280;6539;49.476;8.484;2023-07-09T04:07:23;100790.47;;;23.25;67.81
12949;BME280;6539;49.476;8.484;2023-07-09T04:10:10;100797.44;;;23.30;67.90
12949;BME280;6539;49.476;8.484;2023-07-09T04:12:56;100791.66;;;23.33;67.85
12949;BME280;6539;49.476;8.484;2023-07-09T04:15:47;100791.34;;;23.31;67.85
12949;BME280;6539;49.476;8.484;2023-07-09T04:18:35;100789.81;;;23.30;67.54
12949;BME280;6539;49.476;8.484;2023-07-09T04:21:22;100796.81;;;23.35;66.72
12949;BME280;6539;49.476;8.484;2023-07-09T04:24:10;100798.16;;;23.39;66.42
12949;BME280;6539;49.476;8.484;2023-07-09T04:26:56;100804.34;;;23.43;66.23
12949;BME280;6539;49.476;8.484;2023-07-09T04:29:42;100802.59;;;23.46;66.01
12949;BME280;6539;49.476;8.484;2023-07-09T04:32:31;100807.03;;;23.53;66.50
12949;BME280;6539;49.476;8.484;2023-07-09T04:35:19;100807.13;;;23.58;66.38
12949;BME280;6539;49.476;8.484;2023-07-09T04:38:05;100812.53;;;23.62;66.88
12949;BME280;6539;49.476;8.484;2023-07-09T04:40:53;100813.00;;;23.60;67.34
12949;BME280;6539;49.476;8.484;2023-07-09T04:43:41;100822.69;;;23.59;68.08
12949;BME280;6539;49.476;8.484;2023-07-09T04:46:27;100816.88;;;23.63;68.55
12949;BME280;6539;49.476;8.484;2023-07-09T04:49:16;100814.06;;;23.63;68.80
12949;BME280;6539;49.476;8.484;2023-07-09T04:52:08;100824.81;;;23.64;68.98
12949;BME280;6539;49.476;8.484;2023-07-09T04:54:57;100822.84;;;23.70;69.10
12949;BME280;6539;49.476;8.484;2023-07-09T04:57:43;100826.34;;;23.80;68.99
12949;BME280;6539;49.476;8.484;2023-07-09T05:00:29;100824.03;;;23.78;69.89
12949;BME280;6539;49.476;8.484;2023-07-09T05:03:15;100835.63;;;23.71;70.14
12949;BME280;6539;49.476;8.484;2023-07-09T05:06:06;100830.63;;;23.61;70.59
12949;BME280;6539;49.476;8.484;2023-07-09T05:08:52;100838.63;;;23.53;70.59
12949;BME280;6539;49.476;8.484;2023-07-09T05:11:40;100831.50;;;23.52;70.60
12949;BME280;6539;49.476;8.484;2023-07-09T05:14:29;100822.09;;;23.55;70.54
12949;BME280;6539;49.476;8.484;2023-07-09T05:17:15;100825.00;;;23.61;70.46
12949;BME280;6539;49.476;8.484;2023-07-09T05:20:04;100826.06;;;23.63;70.17
12949;BME280;6539;49.476;8.484;2023-07-09T05:22:51;100818.81;;;23.71;69.33
12949;BME280;6539;49.476;8.484;2023-07-09T05:25:37;100821.78;;;23.82;68.99
12949;BME280;6539;49.476;8.484;2023-07-09T05:28:23;100820.91;;;23.91;67.68
12949;BME280;6539;49.476;8.484;2023-07-09T05:31:09;100828.44;;;23.99;64.40
12949;BME280;6539;49.476;8.484;2023-07-09T05:33:55;100831.91;;;24.09;63.01
12949;BME280;6539;49.476;8.484;2023-07-09T05:36:44;100825.81;;;24.31;61.18
12949;BME280;6539;49.476;8.484;2023-07-09T05:39:32;100833.34;;;24.39;61.27
12949;BME280;6539;49.476;8.484;2023-07-09T05:42:18;100819.97;;;24.49;61.42
12949;BME280;6539;49.476;8.484;2023-07-09T05:45:05;100821.72;;;24.66;61.19
12949;BME280;6539;49.476;8.484;2023-07-09T05:47:51;100833.00;;;24.72;60.85
12949;BME280;6539;49.476;8.484;2023-07-09T05:50:37;100839.22;;;24.76;61.33
12949;BME280;6539;49.476;8.484;2023-07-09T05:53:24;100836.97;;;24.80;61.27
12949;BME280;6539;49.476;8.484;2023-07-09T05:56:15;100843.84;;;24.79;60.39
12949;BME280;6539;49.476;8.484;2023-07-09T05:59:04;100842.28;;;24.78;59.83
12949;BME280;6539;49.476;8.484;2023-07-09T06:01:51;100836.69;;;24.78;59.84
12949;BME280;6539;49.476;8.484;2023-07-09T06:04:39;100839.00;;;24.79;59.66
12949;BME280;6539;49.476;8.484;2023-07-09T06:07:27;100847.22;;;24.83;59.52
12949;BME280;6539;49.476;8.484;2023-07-09T06:10:14;100851.41;;;24.93;59.08
12949;BME280;6539;49.476;8.484;2023-07-09T06:13:03;100848.31;;;24.91;58.09
12949;BME280;6539;49.476;8.484;2023-07-09T06:15:50;100853.66;;;24.89;58.08
12949;BME280;6539;49.476;8.484;2023-07-09T06:18:38;100851.88;;;24.86;58.62
12949;BME280;6539;49.476;8.484;2023-07-09T06:21:24;100846.28;;;24.91;58.33
12949;BME280;6539;49.476;8.484;2023-07-09T06:24:13;100848.06;;;24.89;59.27
12949;BME280;6539;49.476;8.484;2023-07-09T06:27:01;100849.38;;;24.93;59.20
12949;BME280;6539;49.476;8.484;2023-07-09T06:29:47;100849.78;;;25.07;59.04
12949;BME280;6539;49.476;8.484;2023-07-09T06:32:35;100846.03;;;25.15;59.03
12949;BME280;6539;49.476;8.484;2023-07-09T06:35:24;100846.44;;;25.28;58.59
12949;BME280;6539;49.476;8.484;2023-07-09T06:38:12;100838.13;;;25.39;58.13
12949;BME280;6539;49.476;8.484;2023-07-09T06:41:01;100846.81;;;25.41;58.22
12949;BME280;6539;49.476;8.484;2023-07-09T06:43:47;100856.34;;;25.44;57.31
12949;BME280;6539;49.476;8.484;2023-07-09T06:46:34;100850.22;;;25.45;57.06
12949;BME280;6539;49.476;8.484;2023-07-09T06:49:22;100857.50;;;25.57;56.42
12949;BME280;6539;49.476;8.484;2023-07-09T06:52:11;100849.38;;;25.65;54.46
12949;BME280;6539;49.476;8.484;2023-07-09T06:54:59;100856.06;;;25.73;53.75
12949;BME280;6539;49.476;8.484;2023-07-09T06:57:45;100850.78;;;25.81;53.71
12949;BME280;6539;49.476;8.484;2023-07-09T07:00:33;100855.97;;;25.88;53.76
12949;BME280;6539;49.476;8.484;2023-07-09T07:03:21;100856.03;;;25.99;53.54
12949;BME280;6539;49.476;8.484;2023-07-09T07:06:09;100854.88;;;26.11;53.34
12949;BME280;6539;49.476;8.484;2023-07-09T07:08:55;100857.00;;;26.27;52.45
12949;BME280;6539;49.476;8.484;2023-07-09T07:11:41;100857.84;;;26.33;52.42
12949;BME280;6539;49.476;8.484;2023-07-09T07:14:27;100858.38;;;26.37;52.18
12949;BME280;6539;49.476;8.484;2023-07-09T07:17:16;100854.56;;;26.45;51.99
12949;BME280;6539;49.476;8.484;2023-07-09T07:20:03;100846.94;;;26.57;51.01
12949;BME280;6539;49.476;8.484;2023-07-09T07:22:52;100851.81;;;26.57;50.42
12949;BME280;6539;49.476;8.484;2023-07-09T07:25:38;100836.19;;;26.56;50.67
12949;BME280;6539;49.476;8.484;2023-07-09T07:28:27;100834.69;;;26.66;50.08
12949;BME280;6539;49.476;8.484;2023-07-09T07:31:13;100837.09;;;26.78;49.75
12949;BME280;6539;49.476;8.484;2023-07-09T07:34:03;100831.75;;;26.91;49.14
12949;BME280;6539;49.476;8.484;2023-07-09T07:36:52;100829.47;;;27.06;49.18
12949;BME280;6539;49.476;8.484;2023-07-09T07:39:38;100826.41;;;27.15;48.82
12949;BME280;6539;49.476;8.484;2023-07-09T07:42:24;100835.16;;;27.23;48.62
12949;BME280;6539;49.476;8.484;2023-07-09T07:45:11;100833.88;;;27.30;48.65
12949;BME280;6539;49.476;8.484;2023-07-09T07:47:59;100830.59;;;27.37;48.65
12949;BME280;6539;49.476;8.484;2023-07-09T07:50:46;100833.44;;;27.64;48.08
12949;BME280;6539;49.476;8.484;2023-07-09T07:53:33;100831.63;;;27.72;47.55
12949;BME280;6539;49.476;8.484;2023-07-09T07:56:21;100821.09;;;27.84;46.35
12949;BME280;6539;49.476;8.484;2023-07-09T07:59:08;100832.63;;;27.91;45.96
12949;BME280;6539;49.476;8.484;2023-07-09T08:01:54;100825.19;;;28.00;45.38
12949;BME280;6539;49.476;8.484;2023-07-09T08:04:41;100823.66;;;28.04;45.22
12949;BME280;6539;49.476;8.484;2023-07-09T08:07:30;100820.28;;;28.17;45.14
12949;BME280;6539;49.476;8.484;2023-07-09T08:10:18;100820.25;;;28.28;44.31
12949;BME280;6539;49.476;8.484;2023-07-09T08:13:04;100816.38;;;28.36;44.05
12949;BME280;6539;49.476;8.484;2023-07-09T08:15:53;100821.50;;;28.43;43.97
12949;BME280;6539;49.476;8.484;2023-07-09T08:18:39;100820.72;;;28.43;44.16
12949;BME280;6539;49.476;8.484;2023-07-09T08:21:25;100811.72;;;28.50;44.24
12949;BME280;6539;49.476;8.484;2023-07-09T08:24:12;100814.50;;;28.66;43.58
12949;BME280;6539;49.476;8.484;2023-07-09T08:27:01;100813.22;;;28.67;43.14
12949;BME280;6539;49.476;8.484;2023-07-09T08:29:53;100823.22;;;28.74;42.93
12949;BME280;6539;49.476;8.484;2023-07-09T08:32:44;100824.16;;;28.88;42.90
12949;BME280;6539;49.476;8.484;2023-07-09T08:35:30;100815.94;;;28.90;42.27
12949;BME280;6539;49.476;8.484;2023-07-09T08:38:18;100817.44;;;28.96;42.47
12949;BME280;6539;49.476;8.484;2023-07-09T08:50:42;100820.38;;;29.20;42.04
12949;BME280;6539;49.476;8.484;2023-07-09T08:53:36;100818.81;;;29.25;41.92
12949;BME280;6539;49.476;8.484;2023-07-09T08:56:29;100820.13;;;29.24;41.93
12949;BME280;6539;49.476;8.484;2023-07-09T08:59:18;100819.78;;;29.33;42.14
12949;BME280;6539;49.476;8.484;2023-07-09T09:02:25;100816.16;;;29.38;42.19
12949;BME280;6539;49.476;8.484;2023-07-09T09:05:20;100815.25;;;29.54;42.01
12949;BME280;6539;49.476;8.484;2023-07-09T09:11:34;100804.22;;;29.51;41.85
12949;BME280;6539;49.476;8.484;2023-07-09T09:14:37;100806.16;;;29.67;41.91
12949;BME280;6539;49.476;8.484;2023-07-09T09:17:25;100800.31;;;29.89;41.78
12949;BME280;6539;49.476;8.484;2023-07-09T09:20:22;100800.31;;;29.89;41.40
12949;BME280;6539;49.476;8.484;2023-07-09T09:25:56;100809.03;;;29.91;41.87
12949;BME280;6539;49.476;8.484;2023-07-09T09:28:47;100801.72;;;30.01;41.38
12949;BME280;6539;49.476;8.484;2023-07-09T09:31:36;100795.81;;;30.23;40.67
12949;BME280;6539;49.476;8.484;2023-07-09T09:34:29;100803.69;;;30.36;40.09
12949;BME280;6539;49.476;8.484;2023-07-09T09:37:31;100814.44;;;30.43;39.85
12949;BME280;6539;49.476;8.484;2023-07-09T09:40:21;100815.19;;;30.43;40.44
12949;BME280;6539;49.476;8.484;2023-07-09T09:43:18;100813.53;;;30.53;40.11
12949;BME280;6539;49.476;8.484;2023-07-09T09:46:06;100818.97;;;30.70;38.79
12949;BME280;6539;49.476;8.484;2023-07-09T09:49:02;100822.88;;;30.67;38.76
12949;BME280;6539;49.476;8.484;2023-07-09T09:51:49;100819.00;;;30.88;37.98
12949;BME280;6539;49.476;8.484;2023-07-09T09:54:43;100817.00;;;30.83;38.40
12949;BME280;6539;49.476;8.484;2023-07-09T09:57:32;100811.72;;;30.93;38.07
12949;BME280;6539;49.476;8.484;2023-07-09T10:00:22;100793.47;;;31.07;37.51
12949;BME280;6539;49.476;8.484;2023-07-09T10:03:10;100790.09;;;31.09;37.68
12949;BME280;6539;49.476;8.484;2023-07-09T10:06:04;100786.38;;;31.32;37.25
12949;BME280;6539;49.476;8.484;2023-07-09T10:12:16;100786.81;;;31.55;37.09
12949;BME280;6539;49.476;8.484;2023-07-09T10:15:15;100784.22;;;31.70;35.91
12949;BME280;6539;49.476;8.484;2023-07-09T10:31:03;100758.03;;;32.03;35.29
12949;BME280;6539;49.476;8.484;2023-07-09T10:34:21;100751.13;;;32.38;33.08
12949;BME280;6539;49.476;8.484;2023-07-09T10:40:40;100752.88;;;33.01;32.93
12949;BME280;6539;49.476;8.484;2023-07-09T10:44:06;100751.84;;;33.32;32.04
12949;BME280;6539;49.476;8.484;2023-07-09T10:47:04;100750.84;;;33.71;31.59
12949;BME280;6539;49.476;8.484;2023-07-09T10:49:52;100742.63;;;33.88;30.42
12949;BME280;6539;49.476;8.484;2023-07-09T10:52:46;100732.69;;;34.45;29.66
12949;BME280;6539;49.476;8.484;2023-07-09T10:55:47;100742.84;;;35.28;28.66
12949;BME280;6539;49.476;8.484;2023-07-09T10:58:43;100732.41;;;35.60;28.42
12949;BME280;6539;49.476;8.484;2023-07-09T11:01:40;100730.50;;;35.55;28.41
12949;BME280;6539;49.476;8.484;2023-07-09T11:04:42;100718.81;;;35.98;27.64
12949;BME280;6539;49.476;8.484;2023-07-09T11:07:40;100723.34;;;36.17;28.07
12949;BME280;6539;49.476;8.484;2023-07-09T11:10:39;100720.03;;;36.28;27.62
12949;BME280;6539;49.476;8.484;2023-07-09T11:13:47;100715.78;;;35.96;27.46
12949;BME280;6539;49.476;8.484;2023-07-09T11:16:40;100709.09;;;36.02;27.26
12949;BME280;6539;49.476;8.484;2023-07-09T11:19:29;100706.44;;;35.88;27.60
12949;BME280;6539;49.476;8.484;2023-07-09T11:22:22;100707.75;;;36.03;27.15
12949;BME280;6539;49.476;8.484;2023-07-09T11:25:14;100714.97;;;36.19;27.44
12949;BME280;6539;49.476;8.484;2023-07-09T11:28:12;100690.88;;;36.69;26.90
12949;BME280;6539;49.476;8.484;2023-07-09T11:31:16;100697.94;;;37.25;26.09
12949;BME280;6539;49.476;8.484;2023-07-09T11:34:14;100698.09;;;38.10;24.86
12949;BME280;6539;49.476;8.484;2023-07-09T11:37:15;100691.84;;;38.39;24.26
12949;BME280;6539;49.476;8.484;2023-07-09T11:40:11;100696.41;;;38.25;23.45
12949;BME280;6539;49.476;8.484;2023-07-09T11:43:01;100692.84;;;38.16;24.05
12949;BME280;6539;49.476;8.484;2023-07-09T11:45:48;100687.56;;;38.30;23.58
12949;BME280;6539;49.476;8.484;2023-07-09T11:48:39;100686.19;;;38.14;22.81
12949;BME280;6539;49.476;8.484;2023-07-09T11:51:53;100682.72;;;38.33;23.27
12949;BME280;6539;49.476;8.484;2023-07-09T11:54:45;100680.59;;;38.77;23.02
12949;BME280;6539;49.476;8.484;2023-07-09T11:57:34;100686.53;;;38.88;22.43
12949;BME280;6539;49.476;8.484;2023-07-09T12:00:20;100683.06;;;38.90;22.90
12949;BME280;6539;49.476;8.484;2023-07-09T12:03:13;100679.56;;;38.82;23.11
12949;BME280;6539;49.476;8.484;2023-07-09T12:06:07;100682.03;;;39.31;22.12
12949;BME280;6539;49.476;8.484;2023-07-09T12:09:05;100664.94;;;39.43;21.50
12949;BME280;6539;49.476;8.484;2023-07-09T12:11:51;100669.72;;;39.57;21.37
12949;BME280;6539;49.476;8.484;2023-07-09T12:14:41;100671.16;;;39.39;21.44
12949;BME280;6539;49.476;8.484;2023-07-09T12:17:30;100667.72;;;39.60;21.69
12949;BME280;6539;49.476;8.484;2023-07-09T12:20:20;100656.47;;;39.45;22.06
12949;BME280;6539;49.476;8.484;2023-07-09T12:23:32;100646.66;;;39.02;22.46
12949;BME280;6539;49.476;8.484;2023-07-09T12:26:20;100648.44;;;39.24;22.11
12949;BME280;6539;49.476;8.484;2023-07-09T12:29:09;100640.16;;;39.02;22.65
12949;BME280;6539;49.476;8.484;2023-07-09T12:32:03;100636.38;;;39.54;22.27
12949;BME280;6539;49.476;8.484;2023-07-09T12:34:55;100620.53;;;39.92;21.22
12949;BME280;6539;49.476;8.484;2023-07-09T12:37:44;100622.75;;;40.41;20.98
12949;BME280;6539;49.476;8.484;2023-07-09T12:40:30;100619.19;;;41.02;20.05
12949;BME280;6539;49.476;8.484;2023-07-09T12:43:31;100618.31;;;41.42;19.58
12949;BME280;6539;49.476;8.484;2023-07-09T12:46:17;100606.69;;;41.09;19.67
12949;BME280;6539;49.476;8.484;2023-07-09T12:49:10;100595.22;;;40.99;19.96
12949;BME280;6539;49.476;8.484;2023-07-09T12:52:23;100597.31;;;40.18;20.61
12949;BME280;6539;49.476;8.484;2023-07-09T12:55:24;100591.47;;;39.78;20.80
12949;BME280;6539;49.476;8.484;2023-07-09T12:58:27;100591.59;;;39.80;20.79
12949;BME280;6539;49.476;8.484;2023-07-09T13:01:17;100589.94;;;39.87;20.45
12949;BME280;6539;49.476;8.484;2023-07-09T13:04:03;100589.03;;;40.03;20.50
12949;BME280;6539;49.476;8.484;2023-07-09T13:06:52;100590.50;;;40.23;20.29
12949;BME280;6539;49.476;8.484;2023-07-09T13:09:51;100575.91;;;40.31;19.61
12949;BME280;6539;49.476;8.484;2023-07-09T13:12:41;100572.19;;;40.59;18.97
12949;BME280;6539;49.476;8.484;2023-07-09T13:15:43;100571.31;;;40.87;18.86
12949;BME280;6539;49.476;8.484;2023-07-09T13:18:30;100581.47;;;40.58;18.34
12949;BME280;6539;49.476;8.484;2023-07-09T13:21:19;100571.22;;;40.45;19.08
12949;BME280;6539;49.476;8.484;2023-07-09T13:24:25;100571.84;;;40.24;19.12
12949;BME280;6539;49.476;8.484;2023-07-09T13:27:13;100565.09;;;40.60;18.44
12949;BME280;6539;49.476;8.484;2023-07-09T13:30:02;100558.84;;;40.64;18.14
12949;BME280;6539;49.476;8.484;2023-07-09T13:32:51;100563.47;;;41.51;17.76
12949;BME280;6539;49.476;8.484;2023-07-09T13:35:37;100567.28;;;41.98;17.01
12949;BME280;6539;49.476;8.484;2023-07-09T13:38:24;100561.59;;;41.77;17.21
12949;BME280;6539;49.476;8.484;2023-07-09T13:41:17;100553.97;;;41.93;16.99
12949;BME280;6539;49.476;8.484;2023-07-09T13:44:23;100554.06;;;42.16;16.73
12949;BME280;6539;49.476;8.484;2023-07-09T13:47:19;100550.41;;;42.16;17.57
12949;BME280;6539;49.476;8.484;2023-07-09T13:50:06;100553.44;;;41.85;16.65
12949;BME280;6539;49.476;8.484;2023-07-09T13:52:54;100546.16;;;40.88;17.01
12949;BME280;6539;49.476;8.484;2023-07-09T13:55:40;100543.31;;;40.38;17.83
12949;BME280;6539;49.476;8.484;2023-07-09T13:58:28;100541.94;;;39.80;18.16
12949;BME280;6539;49.476;8.484;2023-07-09T14:01:23;100538.78;;;39.18;18.81
12949;BME280;6539;49.476;8.484;2023-07-09T14:04:13;100534.91;;;38.77;19.25
12949;BME280;6539;49.476;8.484;2023-07-09T14:07:00;100529.66;;;38.57;19.85
12949;BME280;6539;49.476;8.484;2023-07-09T14:09:46;100530.38;;;38.38;19.56
12949;BME280;6539;49.476;8.484;2023-07-09T14:12:32;100535.97;;;37.92;19.97
12949;BME280;6539;49.476;8.484;2023-07-09T14:15:20;100520.72;;;37.90;20.65
12949;BME280;6539;49.476;8.484;2023-07-09T14:18:14;100525.13;;;37.91;20.70
12949;BME280;6539;49.476;8.484;2023-07-09T14:21:09;100524.50;;;37.92;20.52
12949;BME280;6539;49.476;8.484;2023-07-09T14:23:58;100532.69;;;37.79;20.60
12949;BME280;6539;49.476;8.484;2023-07-09T14:26:48;100529.50;;;37.75;20.50
12949;BME280;6539;49.476;8.484;2023-07-09T14:29:36;100522.78;;;37.63;20.50
12949;BME280;6539;49.476;8.484;2023-07-09T14:32:38;100530.19;;;37.66;20.37
12949;BME280;6539;49.476;8.484;2023-07-09T14:35:24;100532.03;;;37.88;19.77
12949;BME280;6539;49.476;8.484;2023-07-09T14:38:22;100523.03;;;38.01;19.63
12949;BME280;6539;49.476;8.484;2023-07-09T14:41:21;100515.66;;;38.25;19.72
12949;BME280;6539;49.476;8.484;2023-07-09T14:44:31;100520.78;;;38.26;19.52
12949;BME280;6539;49.476;8.484;2023-07-09T14:47:20;100519.66;;;38.48;19.36
12949;BME280;6539;49.476;8.484;2023-07-09T14:50:08;100509.72;;;38.49;19.48
12949;BME280;6539;49.476;8.484;2023-07-09T14:52:55;100511.56;;;38.64;19.70
12949;BME280;6539;49.476;8.484;2023-07-09T14:55:42;100511.16;;;38.86;19.40
12949;BME280;6539;49.476;8.484;2023-07-09T14:58:30;100518.97;;;39.22;19.44
12949;BME280;6539;49.476;8.484;2023-07-09T15:01:24;100511.53;;;39.48;18.83
12949;BME280;6539;49.476;8.484;2023-07-09T15:07:08;100512.16;;;39.18;18.23
12949;BME280;6539;49.476;8.484;2023-07-09T15:09:54;100509.41;;;39.01;18.71
12949;BME280;6539;49.476;8.484;2023-07-09T15:12:41;100504.59;;;39.22;19.37
12949;BME280;6539;49.476;8.484;2023-07-09T15:15:31;100507.94;;;39.38;19.04
12949;BME280;6539;49.476;8.484;2023-07-09T15:18:17;100508.53;;;39.17;18.87
12949;BME280;6539;49.476;8.484;2023-07-09T15:21:08;100503.19;;;38.95;18.83
12949;BME280;6539;49.476;8.484;2023-07-09T15:23:55;100508.28;;;38.77;19.29
12949;BME280;6539;49.476;8.484;2023-07-09T15:26:41;100509.72;;;39.24;18.61
12949;BME280;6539;49.476;8.484;2023-07-09T15:29:29;100504.69;;;40.01;18.17
12949;BME280;6539;49.476;8.484;2023-07-09T15:32:18;100497.19;;;40.57;16.55
12949;BME280;6539;49.476;8.484;2023-07-09T15:35:05;100496.59;;;40.18;16.04
12949;BME280;6539;49.476;8.484;2023-07-09T15:37:51;100497.81;;;40.15;16.47
12949;BME280;6539;49.476;8.484;2023-07-09T15:40:39;100496.88;;;40.63;16.04
12949;BME280;6539;49.476;8.484;2023-07-09T15:43:28;100499.09;;;40.43;16.35
12949;BME280;6539;49.476;8.484;2023-07-09T15:46:22;100491.88;;;39.54;16.42
12949;BME280;6539;49.476;8.484;2023-07-09T15:49:11;100496.06;;;38.96;17.31